sensor_id;sensor_type;location;lat;lon;timestamp;P1;durP1;ratioP1;P2;durP2;ratioP2
28848;SDS011;15981;43.292;-2.888;2022-10-16T00:01:18;5.13;;;3.00;;
28848;SDS011;15981;43.292;-2.888;2022-10-16T00:03:44;6.15;;;2.78;;
28848;SDS011;15981;43.292;-2.888;2022-10-16T00:06:11;7.25;;;3.00;;
28848;SDS011;15981;43.292;-2.888;2022-10-16T00:08:37;5.18;;;3.15;;
28848;SDS011;15981;43.292;-2.888;2022-10-16T00:11:04;5.32;;;2.92;;
28848;SDS011;15981;43.292;-2.888;2022-10-16T00:13:30;5.05;;;3.00;;
28848;SDS011;15981;43.292;-2.888;2022-10-16T00:15:56;5.80;;;2.85;;
28848;SDS011;15981;43.292;-2.888;2022-10-16T00:18:22;4.95;;;2.88;;
28848;SDS011;15981;43.292;-2.888;2022-10-16T00:20:48;6.70;;;2.80;;
28848;SDS011;15981;43.292;-2.888;2022-10-16T00:23:14;5.93;;;2.95;;
28848;SDS011;15981;43.292;-2.888;2022-10-16T00:25:39;6.30;;;3.25;;
28848;SDS011;15981;43.292;-2.888;2022-10-16T00:28:05;5.80;;;3.10;;
28848;SDS011;15981;43.292;-2.888;2022-10-16T00:30:31;3.50;;;2.88;;
28848;SDS011;15981;43.292;-2.888;2022-10-16T00:32:56;6.28;;;3.45;;
28848;SDS011;15981;43.292;-2.888;2022-10-16T00:35:22;5.40;;;3.08;;
28848;SDS011;15981;43.292;-2.888;2022-10-16T00:37:48;5.07;;;2.90;;
28848;SDS011;15981;43.292;-2.888;2022-10-16T00:40:13;9.15;;;5.82;;
28848;SDS011;15981;43.292;-2.888;2022-10-16T00:42:39;8.57;;;5.60;;
28848;SDS011;15981;43.292;-2.888;2022-10-16T00:45:05;6.35;;;4.03;;
28848;SDS011;15981;43.292;-2.888;2022-10-16T00:47:38;9.15;;;4.45;;
28848;SDS011;15981;43.292;-2.888;2022-10-16T00:52:34;5.60;;;3.70;;
28848;SDS011;15981;43.292;-2.888;2022-10-16T00:54:59;4.45;;;3.38;;
28848;SDS011;15981;43.292;-2.888;2022-10-16T00:57:26;7.63;;;3.55;;
28848;SDS011;15981;43.292;-2.888;2022-10-16T00:59:51;7.43;;;3.40;;
28848;SDS011;15981;43.292;-2.888;2022-10-16T01:02:17;5.13;;;3.08;;
28848;SDS011;15981;43.292;-2.888;2022-10-16T01:04:44;4.78;;;3.10;;
28848;SDS011;15981;43.292;-2.888;2022-10-16T01:07:16;4.93;;;3.70;;
28848;SDS011;15981;43.292;-2.888;2022-10-16T01:12:36;4.85;;;3.08;;
28848;SDS011;15981;43.292;-2.888;2022-10-16T01:17:49;3.97;;;3.33;;
28848;SDS011;15981;43.292;-2.888;2022-10-16T01:20:20;4.90;;;3.72;;
28848;SDS011;15981;43.292;-2.888;2022-10-16T01:25:49;4.35;;;3.05;;
28848;SDS011;15981;43.292;-2.888;2022-10-16T01:28:13;5.43;;;3.30;;
28848;SDS011;15981;43.292;-2.888;2022-10-16T01:30:40;5.30;;;3.10;;
28848;SDS011;15981;43.292;-2.888;2022-10-16T01:35:35;4.20;;;2.88;;
28848;SDS011;15981;43.292;-2.888;2022-10-16T01:40:36;5.00;;;3.30;;
28848;SDS011;15981;43.292;-2.888;2022-10-16T01:43:14;5.68;;;3.40;;
28848;SDS011;15981;43.292;-2.888;2022-10-16T01:45:41;4.18;;;3.22;;
28848;SDS011;15981;43.292;-2.888;2022-10-16T01:48:07;7.50;;;3.35;;
28848;SDS011;15981;43.292;-2.888;2022-10-16T01:50:37;5.47;;;3.22;;
28848;SDS011;15981;43.292;-2.888;2022-10-16T01:53:04;4.72;;;3.40;;
28848;SDS011;15981;43.292;-2.888;2022-10-16T01:55:32;5.03;;;3.38;;
28848;SDS011;15981;43.292;-2.888;2022-10-16T01:57:58;6.30;;;3.38;;
28848;SDS011;15981;43.292;-2.888;2022-10-16T02:00:25;5.03;;;3.20;;
28848;SDS011;15981;43.292;-2.888;2022-10-16T02:02:52;4.00;;;2.70;;
28848;SDS011;15981;43.292;-2.888;2022-10-16T02:05:52;7.75;;;3.22;;
28848;SDS011;15981;43.292;-2.888;2022-10-16T02:08:10;5.43;;;3.08;;
28848;SDS011;15981;43.292;-2.888;2022-10-16T02:10:36;5.00;;;3.05;;
28848;SDS011;15981;43.292;-2.888;2022-10-16T02:15:37;7.05;;;3.67;;
28848;SDS011;15981;43.292;-2.888;2022-10-16T02:18:04;5.30;;;3.30;;
28848;SDS011;15981;43.292;-2.888;2022-10-16T02:20:32;5.97;;;3.05;;
28848;SDS011;15981;43.292;-2.888;2022-10-16T02:22:59;5.53;;;3.05;;
28848;SDS011;15981;43.292;-2.888;2022-10-16T02:25:35;4.20;;;3.08;;
28848;SDS011;15981;43.292;-2.888;2022-10-16T02:28:19;4.70;;;3.10;;
28848;SDS011;15981;43.292;-2.888;2022-10-16T02:30:58;7.60;;;3.95;;
28848;SDS011;15981;43.292;-2.888;2022-10-16T02:33:24;4.82;;;3.13;;
28848;SDS011;15981;43.292;-2.888;2022-10-16T02:35:50;4.65;;;3.15;;
28848;SDS011;15981;43.292;-2.888;2022-10-16T02:38:17;6.75;;;3.47;;
28848;SDS011;15981;43.292;-2.888;2022-10-16T02:40:43;5.68;;;3.72;;
28848;SDS011;15981;43.292;-2.888;2022-10-16T02:43:09;4.82;;;3.50;;
28848;SDS011;15981;43.292;-2.888;2022-10-16T02:45:35;7.50;;;3.38;;
28848;SDS011;15981;43.292;-2.888;2022-10-16T02:48:01;7.47;;;4.10;;
28848;SDS011;15981;43.292;-2.888;2022-10-16T02:50:26;6.03;;;3.80;;
28848;SDS011;15981;43.292;-2.888;2022-10-16T02:52:52;7.72;;;4.53;;
28848;SDS011;15981;43.292;-2.888;2022-10-16T02:55:18;8.07;;;3.95;;
28848;SDS011;15981;43.292;-2.888;2022-10-16T02:57:44;5.35;;;3.60;;
28848;SDS011;15981;43.292;-2.888;2022-10-16T03:00:10;6.20;;;3.60;;
28848;SDS011;15981;43.292;-2.888;2022-10-16T03:02:37;6.22;;;3.60;;
28848;SDS011;15981;43.292;-2.888;2022-10-16T03:05:03;9.13;;;4.07;;
28848;SDS011;15981;43.292;-2.888;2022-10-16T03:07:29;6.22;;;3.67;;
28848;SDS011;15981;43.292;-2.888;2022-10-16T03:09:54;9.48;;;4.40;;
28848;SDS011;15981;43.292;-2.888;2022-10-16T03:12:21;5.88;;;3.60;;
28848;SDS011;15981;43.292;-2.888;2022-10-16T03:14:46;8.13;;;4.13;;
28848;SDS011;15981;43.292;-2.888;2022-10-16T03:17:12;7.70;;;4.28;;
28848;SDS011;15981;43.292;-2.888;2022-10-16T03:19:38;6.85;;;4.15;;
28848;SDS011;15981;43.292;-2.888;2022-10-16T03:22:04;6.65;;;4.00;;
28848;SDS011;15981;43.292;-2.888;2022-10-16T03:24:30;8.38;;;3.80;;
28848;SDS011;15981;43.292;-2.888;2022-10-16T03:26:55;7.93;;;3.85;;
28848;SDS011;15981;43.292;-2.888;2022-10-16T03:29:21;7.65;;;4.05;;
28848;SDS011;15981;43.292;-2.888;2022-10-16T03:31:47;6.68;;;3.80;;
28848;SDS011;15981;43.292;-2.888;2022-10-16T03:34:14;5.55;;;3.70;;
28848;SDS011;15981;43.292;-2.888;2022-10-16T03:36:40;5.35;;;4.18;;
28848;SDS011;15981;43.292;-2.888;2022-10-16T03:39:06;6.05;;;3.83;;
28848;SDS011;15981;43.292;-2.888;2022-10-16T03:41:31;5.72;;;3.70;;
28848;SDS011;15981;43.292;-2.888;2022-10-16T03:43:57;8.30;;;4.53;;
28848;SDS011;15981;43.292;-2.888;2022-10-16T03:46:23;11.35;;;4.00;;
28848;SDS011;15981;43.292;-2.888;2022-10-16T03:48:49;6.85;;;4.03;;
28848;SDS011;15981;43.292;-2.888;2022-10-16T03:51:14;7.35;;;4.03;;
28848;SDS011;15981;43.292;-2.888;2022-10-16T03:53:40;5.10;;;3.90;;
28848;SDS011;15981;43.292;-2.888;2022-10-16T03:56:06;5.75;;;3.90;;
28848;SDS011;15981;43.292;-2.888;2022-10-16T03:58:32;7.03;;;3.97;;
28848;SDS011;15981;43.292;-2.888;2022-10-16T04:00:57;6.82;;;3.78;;
28848;SDS011;15981;43.292;-2.888;2022-10-16T04:03:23;6.95;;;4.00;;
28848;SDS011;15981;43.292;-2.888;2022-10-16T04:05:49;5.38;;;3.72;;
28848;SDS011;15981;43.292;-2.888;2022-10-16T04:08:15;7.07;;;3.80;;
28848;SDS011;15981;43.292;-2.888;2022-10-16T04:10:42;8.07;;;4.03;;
28848;SDS011;15981;43.292;-2.888;2022-10-16T04:13:08;7.55;;;3.85;;
28848;SDS011;15981;43.292;-2.888;2022-10-16T04:15:33;8.48;;;4.22;;
28848;SDS011;15981;43.292;-2.888;2022-10-16T04:17:59;5.95;;;3.67;;
28848;SDS011;15981;43.292;-2.888;2022-10-16T04:20:25;7.38;;;4.20;;
28848;SDS011;15981;43.292;-2.888;2022-10-16T04:22:50;5.80;;;3.50;;
28848;SDS011;15981;43.292;-2.888;2022-10-16T04:25:16;4.68;;;3.35;;
28848;SDS011;15981;43.292;-2.888;2022-10-16T04:27:42;5.60;;;3.58;;
28848;SDS011;15981;43.292;-2.888;2022-10-16T04:30:07;4.97;;;3.85;;
28848;SDS011;15981;43.292;-2.888;2022-10-16T04:32:33;4.00;;;3.40;;
28848;SDS011;15981;43.292;-2.888;2022-10-16T04:34:59;5.90;;;3.63;;
28848;SDS011;15981;43.292;-2.888;2022-10-16T04:37:25;5.28;;;3.65;;
28848;SDS011;15981;43.292;-2.888;2022-10-16T04:39:51;6.30;;;3.63;;
28848;SDS011;15981;43.292;-2.888;2022-10-16T04:42:17;5.00;;;3.40;;
28848;SDS011;15981;43.292;-2.888;2022-10-16T04:44:42;5.10;;;3.83;;
28848;SDS011;15981;43.292;-2.888;2022-10-16T04:47:08;6.28;;;3.47;;
28848;SDS011;15981;43.292;-2.888;2022-10-16T04:49:34;6.57;;;3.83;;
28848;SDS011;15981;43.292;-2.888;2022-10-16T04:52:00;5.80;;;3.58;;
28848;SDS011;15981;43.292;-2.888;2022-10-16T04:54:25;5.30;;;3.40;;
28848;SDS011;15981;43.292;-2.888;2022-10-16T04:56:51;7.75;;;3.75;;
28848;SDS011;15981;43.292;-2.888;2022-10-16T04:59:17;4.80;;;3.58;;
28848;SDS011;15981;43.292;-2.888;2022-10-16T05:01:44;7.60;;;4.10;;
28848;SDS011;15981;43.292;-2.888;2022-10-16T05:04:09;5.28;;;3.38;;
28848;SDS011;15981;43.292;-2.888;2022-10-16T05:06:35;5.13;;;3.95;;
28848;SDS011;15981;43.292;-2.888;2022-10-16T05:09:01;6.35;;;3.72;;
28848;SDS011;15981;43.292;-2.888;2022-10-16T05:11:27;4.43;;;3.40;;
28848;SDS011;15981;43.292;-2.888;2022-10-16T05:13:52;4.78;;;3.35;;
28848;SDS011;15981;43.292;-2.888;2022-10-16T05:16:18;4.70;;;3.25;;
28848;SDS011;15981;43.292;-2.888;2022-10-16T05:18:44;5.57;;;3.35;;
28848;SDS011;15981;43.292;-2.888;2022-10-16T05:21:09;5.70;;;3.42;;
28848;SDS011;15981;43.292;-2.888;2022-10-16T05:23:35;4.35;;;2.85;;
28848;SDS011;15981;43.292;-2.888;2022-10-16T05:26:01;4.57;;;2.85;;
28848;SDS011;15981;43.292;-2.888;2022-10-16T05:28:27;5.38;;;3.20;;
28848;SDS011;15981;43.292;-2.888;2022-10-16T05:30:53;4.60;;;3.00;;
28848;SDS011;15981;43.292;-2.888;2022-10-16T05:33:20;4.07;;;2.80;;
28848;SDS011;15981;43.292;-2.888;2022-10-16T05:35:46;5.65;;;3.03;;
28848;SDS011;15981;43.292;-2.888;2022-10-16T05:38:12;4.05;;;2.95;;
28848;SDS011;15981;43.292;-2.888;2022-10-16T05:40:37;4.72;;;3.17;;
28848;SDS011;15981;43.292;-2.888;2022-10-16T05:43:03;6.18;;;2.90;;
28848;SDS011;15981;43.292;-2.888;2022-10-16T05:45:29;3.70;;;2.95;;
28848;SDS011;15981;43.292;-2.888;2022-10-16T05:47:54;3.80;;;3.03;;
28848;SDS011;15981;43.292;-2.888;2022-10-16T05:50:20;3.65;;;3.22;;
28848;SDS011;15981;43.292;-2.888;2022-10-16T05:52:46;3.85;;;3.00;;
28848;SDS011;15981;43.292;-2.888;2022-10-16T05:55:11;5.43;;;3.17;;
28848;SDS011;15981;43.292;-2.888;2022-10-16T05:57:37;3.70;;;2.58;;
28848;SDS011;15981;43.292;-2.888;2022-10-16T06:00:04;5.15;;;3.00;;
28848;SDS011;15981;43.292;-2.888;2022-10-16T06:02:30;8.27;;;2.50;;
28848;SDS011;15981;43.292;-2.888;2022-10-16T06:04:56;3.95;;;3.00;;
28848;SDS011;15981;43.292;-2.888;2022-10-16T06:07:21;3.45;;;2.60;;
28848;SDS011;15981;43.292;-2.888;2022-10-16T06:09:48;3.17;;;2.50;;
28848;SDS011;15981;43.292;-2.888;2022-10-16T06:12:14;3.95;;;2.60;;
28848;SDS011;15981;43.292;-2.888;2022-10-16T06:14:39;4.32;;;2.63;;
28848;SDS011;15981;43.292;-2.888;2022-10-16T06:17:05;2.92;;;2.38;;
28848;SDS011;15981;43.292;-2.888;2022-10-16T06:19:30;4.47;;;2.72;;
28848;SDS011;15981;43.292;-2.888;2022-10-16T06:21:57;6.10;;;2.55;;
28848;SDS011;15981;43.292;-2.888;2022-10-16T06:24:24;4.03;;;2.80;;
28848;SDS011;15981;43.292;-2.888;2022-10-16T06:26:49;3.08;;;2.55;;
28848;SDS011;15981;43.292;-2.888;2022-10-16T06:29:15;3.97;;;2.38;;
28848;SDS011;15981;43.292;-2.888;2022-10-16T06:31:41;4.30;;;2.40;;
28848;SDS011;15981;43.292;-2.888;2022-10-16T06:34:08;3.45;;;2.20;;
28848;SDS011;15981;43.292;-2.888;2022-10-16T06:36:36;5.07;;;2.58;;
28848;SDS011;15981;43.292;-2.888;2022-10-16T06:39:02;2.85;;;2.17;;
28848;SDS011;15981;43.292;-2.888;2022-10-16T06:41:28;5.80;;;2.75;;
28848;SDS011;15981;43.292;-2.888;2022-10-16T06:43:53;8.30;;;3.47;;
28848;SDS011;15981;43.292;-2.888;2022-10-16T06:46:20;4.43;;;2.70;;
28848;SDS011;15981;43.292;-2.888;2022-10-16T06:48:46;4.13;;;2.67;;
28848;SDS011;15981;43.292;-2.888;2022-10-16T06:51:16;4.60;;;2.65;;
28848;SDS011;15981;43.292;-2.888;2022-10-16T06:53:43;3.13;;;2.47;;
28848;SDS011;15981;43.292;-2.888;2022-10-16T06:56:12;3.90;;;2.65;;
28848;SDS011;15981;43.292;-2.888;2022-10-16T06:58:38;2.67;;;2.08;;
28848;SDS011;15981;43.292;-2.888;2022-10-16T07:01:04;6.32;;;2.60;;
28848;SDS011;15981;43.292;-2.888;2022-10-16T07:03:30;3.78;;;2.28;;
28848;SDS011;15981;43.292;-2.888;2022-10-16T07:05:55;4.50;;;2.42;;
28848;SDS011;15981;43.292;-2.888;2022-10-16T07:08:21;3.70;;;2.15;;
28848;SDS011;15981;43.292;-2.888;2022-10-16T07:10:47;3.10;;;2.22;;
28848;SDS011;15981;43.292;-2.888;2022-10-16T07:13:13;3.05;;;2.10;;
28848;SDS011;15981;43.292;-2.888;2022-10-16T07:15:39;4.72;;;2.63;;
28848;SDS011;15981;43.292;-2.888;2022-10-16T07:18:05;4.90;;;2.13;;
28848;SDS011;15981;43.292;-2.888;2022-10-16T07:20:31;3.05;;;1.85;;
28848;SDS011;15981;43.292;-2.888;2022-10-16T07:22:57;5.03;;;2.10;;
28848;SDS011;15981;43.292;-2.888;2022-10-16T07:25:22;5.90;;;2.08;;
28848;SDS011;15981;43.292;-2.888;2022-10-16T07:27:48;4.47;;;2.20;;
28848;SDS011;15981;43.292;-2.888;2022-10-16T07:30:14;6.00;;;2.20;;
28848;SDS011;15981;43.292;-2.888;2022-10-16T07:32:39;4.72;;;2.40;;
28848;SDS011;15981;43.292;-2.888;2022-10-16T07:35:07;5.25;;;2.20;;
28848;SDS011;15981;43.292;-2.888;2022-10-16T07:37:33;4.88;;;2.10;;
28848;SDS011;15981;43.292;-2.888;2022-10-16T07:39:58;4.43;;;1.77;;
28848;SDS011;15981;43.292;-2.888;2022-10-16T07:42:24;3.67;;;1.83;;
28848;SDS011;15981;43.292;-2.888;2022-10-16T07:44:50;2.75;;;1.92;;
28848;SDS011;15981;43.292;-2.888;2022-10-16T07:47:15;5.55;;;1.88;;
28848;SDS011;15981;43.292;-2.888;2022-10-16T07:49:41;3.60;;;1.83;;
28848;SDS011;15981;43.292;-2.888;2022-10-16T07:52:07;6.25;;;1.80;;
28848;SDS011;15981;43.292;-2.888;2022-10-16T07:54:33;3.70;;;2.08;;
28848;SDS011;15981;43.292;-2.888;2022-10-16T07:56:58;3.08;;;2.00;;
28848;SDS011;15981;43.292;-2.888;2022-10-16T07:59:24;3.92;;;1.88;;
28848;SDS011;15981;43.292;-2.888;2022-10-16T08:01:50;4.78;;;1.83;;
28848;SDS011;15981;43.292;-2.888;2022-10-16T08:04:16;4.88;;;1.90;;
28848;SDS011;15981;43.292;-2.888;2022-10-16T08:06:42;3.45;;;2.00;;
28848;SDS011;15981;43.292;-2.888;2022-10-16T08:09:08;5.97;;;1.80;;
28848;SDS011;15981;43.292;-2.888;2022-10-16T08:11:33;9.38;;;2.53;;
28848;SDS011;15981;43.292;-2.888;2022-10-16T08:13:59;2.33;;;2.10;;
28848;SDS011;15981;43.292;-2.888;2022-10-16T08:16:25;3.88;;;2.13;;
28848;SDS011;15981;43.292;-2.888;2022-10-16T08:18:51;3.83;;;2.60;;
28848;SDS011;15981;43.292;-2.888;2022-10-16T08:21:17;4.05;;;2.35;;
28848;SDS011;15981;43.292;-2.888;2022-10-16T08:23:43;3.95;;;2.30;;
28848;SDS011;15981;43.292;-2.888;2022-10-16T08:26:10;4.03;;;2.67;;
28848;SDS011;15981;43.292;-2.888;2022-10-16T08:28:36;5.07;;;2.70;;
28848;SDS011;15981;43.292;-2.888;2022-10-16T08:31:09;5.18;;;2.45;;
28848;SDS011;15981;43.292;-2.888;2022-10-16T08:33:38;6.97;;;2.90;;
28848;SDS011;15981;43.292;-2.888;2022-10-16T08:36:04;4.95;;;2.92;;
28848;SDS011;15981;43.292;-2.888;2022-10-16T08:38:30;3.80;;;2.40;;
28848;SDS011;15981;43.292;-2.888;2022-10-16T08:43:45;4.45;;;3.17;;
28848;SDS011;15981;43.292;-2.888;2022-10-16T08:46:22;4.85;;;3.58;;
28848;SDS011;15981;43.292;-2.888;2022-10-16T08:48:54;6.45;;;3.30;;
28848;SDS011;15981;43.292;-2.888;2022-10-16T08:51:23;9.57;;;3.47;;
28848;SDS011;15981;43.292;-2.888;2022-10-16T08:53:51;7.78;;;3.40;;
28848;SDS011;15981;43.292;-2.888;2022-10-16T08:56:18;8.90;;;3.92;;
28848;SDS011;15981;43.292;-2.888;2022-10-16T08:58:44;6.53;;;3.58;;
28848;SDS011;15981;43.292;-2.888;2022-10-16T09:01:12;6.57;;;3.30;;
28848;SDS011;15981;43.292;-2.888;2022-10-16T09:08:38;5.90;;;3.25;;
28848;SDS011;15981;43.292;-2.888;2022-10-16T09:16:19;5.93;;;2.70;;
28848;SDS011;15981;43.292;-2.888;2022-10-16T09:21:33;4.35;;;2.42;;
28848;SDS011;15981;43.292;-2.888;2022-10-16T09:26:55;3.92;;;2.33;;
28848;SDS011;15981;43.292;-2.888;2022-10-16T09:29:21;4.03;;;2.50;;
28848;SDS011;15981;43.292;-2.888;2022-10-16T09:31:48;5.97;;;2.28;;
28848;SDS011;15981;43.292;-2.888;2022-10-16T09:34:21;4.03;;;2.40;;
28848;SDS011;15981;43.292;-2.888;2022-10-16T09:36:50;4.32;;;2.05;;
28848;SDS011;15981;43.292;-2.888;2022-10-16T09:39:16;7.60;;;2.50;;
28848;SDS011;15981;43.292;-2.888;2022-10-16T09:41:43;6.10;;;2.22;;
28848;SDS011;15981;43.292;-2.888;2022-10-16T09:44:28;6.90;;;2.20;;
28848;SDS011;15981;43.292;-2.888;2022-10-16T09:47:05;5.28;;;1.80;;
28848;SDS011;15981;43.292;-2.888;2022-10-16T09:49:31;6.45;;;2.45;;
28848;SDS011;15981;43.292;-2.888;2022-10-16T09:52:10;4.95;;;1.98;;
28848;SDS011;15981;43.292;-2.888;2022-10-16T09:54:36;6.43;;;2.28;;
28848;SDS011;15981;43.292;-2.888;2022-10-16T09:57:06;3.92;;;1.90;;
28848;SDS011;15981;43.292;-2.888;2022-10-16T09:59:32;5.13;;;2.10;;
28848;SDS011;15981;43.292;-2.888;2022-10-16T10:02:01;5.53;;;2.55;;
28848;SDS011;15981;43.292;-2.888;2022-10-16T10:04:37;5.13;;;2.30;;
28848;SDS011;15981;43.292;-2.888;2022-10-16T10:07:04;5.22;;;1.90;;
28848;SDS011;15981;43.292;-2.888;2022-10-16T10:09:38;8.90;;;2.22;;
28848;SDS011;15981;43.292;-2.888;2022-10-16T10:12:05;6.90;;;2.15;;
28848;SDS011;15981;43.292;-2.888;2022-10-16T10:14:50;5.47;;;2.20;;
28848;SDS011;15981;43.292;-2.888;2022-10-16T10:17:20;5.97;;;2.30;;
28848;SDS011;15981;43.292;-2.888;2022-10-16T10:20:14;6.32;;;2.42;;
28848;SDS011;15981;43.292;-2.888;2022-10-16T10:22:41;4.95;;;2.50;;
28848;SDS011;15981;43.292;-2.888;2022-10-16T10:30:24;6.50;;;2.50;;
28848;SDS011;15981;43.292;-2.888;2022-10-16T10:40:33;3.30;;;2.08;;
28848;SDS011;15981;43.292;-2.888;2022-10-16T10:45:38;5.43;;;2.33;;
28848;SDS011;15981;43.292;-2.888;2022-10-16T10:50:57;4.07;;;2.40;;
28848;SDS011;15981;43.292;-2.888;2022-10-16T10:58:43;6.55;;;2.47;;
28848;SDS011;15981;43.292;-2.888;2022-10-16T11:09:10;5.43;;;2.20;;
28848;SDS011;15981;43.292;-2.888;2022-10-16T11:11:48;7.18;;;2.78;;
28848;SDS011;15981;43.292;-2.888;2022-10-16T11:14:33;4.97;;;2.72;;
28848;SDS011;15981;43.292;-2.888;2022-10-16T11:19:46;8.43;;;3.08;;
28848;SDS011;15981;43.292;-2.888;2022-10-16T11:22:15;8.60;;;2.92;;
28848;SDS011;15981;43.292;-2.888;2022-10-16T11:27:09;7.32;;;2.83;;
28848;SDS011;15981;43.292;-2.888;2022-10-16T11:29:40;8.02;;;2.70;;
28848;SDS011;15981;43.292;-2.888;2022-10-16T11:32:15;4.30;;;2.42;;
28848;SDS011;15981;43.292;-2.888;2022-10-16T11:34:54;7.63;;;2.67;;
28848;SDS011;15981;43.292;-2.888;2022-10-16T11:37:23;5.55;;;2.30;;
28848;SDS011;15981;43.292;-2.888;2022-10-16T11:39:49;5.45;;;2.47;;
28848;SDS011;15981;43.292;-2.888;2022-10-16T11:42:27;6.68;;;2.55;;
28848;SDS011;15981;43.292;-2.888;2022-10-16T11:45:12;4.25;;;2.40;;
28848;SDS011;15981;43.292;-2.888;2022-10-16T11:47:44;4.68;;;2.40;;
28848;SDS011;15981;43.292;-2.888;2022-10-16T11:50:17;4.68;;;2.45;;
28848;SDS011;15981;43.292;-2.888;2022-10-16T11:53:08;6.95;;;2.83;;
28848;SDS011;15981;43.292;-2.888;2022-10-16T11:55:37;5.88;;;2.50;;
28848;SDS011;15981;43.292;-2.888;2022-10-16T11:58:05;6.47;;;2.20;;
28848;SDS011;15981;43.292;-2.888;2022-10-16T12:00:36;4.55;;;2.65;;
28848;SDS011;15981;43.292;-2.888;2022-10-16T12:03:08;3.78;;;2.33;;
28848;SDS011;15981;43.292;-2.888;2022-10-16T12:08:21;6.32;;;2.45;;
28848;SDS011;15981;43.292;-2.888;2022-10-16T12:10:47;4.05;;;2.33;;
28848;SDS011;15981;43.292;-2.888;2022-10-16T12:16:04;4.82;;;2.42;;
28848;SDS011;15981;43.292;-2.888;2022-10-16T12:18:30;3.65;;;2.30;;
28848;SDS011;15981;43.292;-2.888;2022-10-16T12:20:56;5.75;;;2.10;;
28848;SDS011;15981;43.292;-2.888;2022-10-16T12:23:30;5.68;;;2.22;;
28848;SDS011;15981;43.292;-2.888;2022-10-16T12:25:57;5.68;;;2.33;;
28848;SDS011;15981;43.292;-2.888;2022-10-16T12:28:27;5.80;;;2.80;;
28848;SDS011;15981;43.292;-2.888;2022-10-16T12:30:59;3.88;;;2.10;;
28848;SDS011;15981;43.292;-2.888;2022-10-16T12:33:26;5.05;;;2.30;;
28848;SDS011;15981;43.292;-2.888;2022-10-16T12:35:52;5.57;;;2.25;;
28848;SDS011;15981;43.292;-2.888;2022-10-16T12:38:20;8.25;;;2.30;;
28848;SDS011;15981;43.292;-2.888;2022-10-16T12:41:08;4.50;;;2.47;;
28848;SDS011;15981;43.292;-2.888;2022-10-16T12:48:33;6.50;;;2.60;;
28848;SDS011;15981;43.292;-2.888;2022-10-16T12:51:09;7.97;;;2.35;;
28848;SDS011;15981;43.292;-2.888;2022-10-16T12:53:35;5.40;;;2.30;;
28848;SDS011;15981;43.292;-2.888;2022-10-16T12:58:33;3.70;;;2.35;;
28848;SDS011;15981;43.292;-2.888;2022-10-16T13:01:16;5.47;;;2.50;;
28848;SDS011;15981;43.292;-2.888;2022-10-16T13:21:53;6.22;;;3.13;;
28848;SDS011;15981;43.292;-2.888;2022-10-16T13:24:36;5.45;;;2.92;;
28848;SDS011;15981;43.292;-2.888;2022-10-16T13:29:54;4.30;;;2.55;;
28848;SDS011;15981;43.292;-2.888;2022-10-16T13:32:25;5.63;;;2.90;;
28848;SDS011;15981;43.292;-2.888;2022-10-16T13:34:52;6.47;;;2.83;;
28848;SDS011;15981;43.292;-2.888;2022-10-16T13:37:19;5.32;;;2.92;;
28848;SDS011;15981;43.292;-2.888;2022-10-16T13:39:45;5.40;;;3.28;;
28848;SDS011;15981;43.292;-2.888;2022-10-16T13:42:30;5.85;;;3.08;;
28848;SDS011;15981;43.292;-2.888;2022-10-16T13:44:56;5.25;;;3.00;;
28848;SDS011;15981;43.292;-2.888;2022-10-16T13:47:25;6.50;;;3.40;;
28848;SDS011;15981;43.292;-2.888;2022-10-16T13:50:04;7.75;;;3.47;;
28848;SDS011;15981;43.292;-2.888;2022-10-16T13:52:30;7.20;;;3.63;;
28848;SDS011;15981;43.292;-2.888;2022-10-16T13:54:56;6.68;;;3.40;;
28848;SDS011;15981;43.292;-2.888;2022-10-16T13:57:25;6.55;;;3.20;;
28848;SDS011;15981;43.292;-2.888;2022-10-16T13:59:51;5.55;;;3.22;;
28848;SDS011;15981;43.292;-2.888;2022-10-16T14:05:12;7.45;;;2.90;;
28848;SDS011;15981;43.292;-2.888;2022-10-16T14:07:39;5.88;;;3.20;;
28848;SDS011;15981;43.292;-2.888;2022-10-16T14:10:06;6.85;;;3.20;;
28848;SDS011;15981;43.292;-2.888;2022-10-16T14:12:42;5.03;;;3.00;;
28848;SDS011;15981;43.292;-2.888;2022-10-16T14:15:15;4.88;;;2.70;;
28848;SDS011;15981;43.292;-2.888;2022-10-16T14:17:48;6.93;;;3.20;;
28848;SDS011;15981;43.292;-2.888;2022-10-16T14:20:15;6.43;;;2.72;;
28848;SDS011;15981;43.292;-2.888;2022-10-16T14:22:41;4.95;;;3.13;;
28848;SDS011;15981;43.292;-2.888;2022-10-16T14:27:45;4.40;;;2.35;;
28848;SDS011;15981;43.292;-2.888;2022-10-16T14:30:21;6.50;;;3.20;;
28848;SDS011;15981;43.292;-2.888;2022-10-16T14:32:57;4.85;;;2.60;;
28848;SDS011;15981;43.292;-2.888;2022-10-16T14:37:52;4.75;;;2.78;;
28848;SDS011;15981;43.292;-2.888;2022-10-16T14:40:18;7.13;;;3.17;;
28848;SDS011;15981;43.292;-2.888;2022-10-16T14:42:44;6.72;;;2.72;;
28848;SDS011;15981;43.292;-2.888;2022-10-16T14:45:10;7.18;;;2.97;;
28848;SDS011;15981;43.292;-2.888;2022-10-16T14:47:37;5.57;;;2.83;;
28848;SDS011;15981;43.292;-2.888;2022-10-16T14:50:11;6.70;;;2.63;;
28848;SDS011;15981;43.292;-2.888;2022-10-16T14:52:37;6.80;;;2.90;;
28848;SDS011;15981;43.292;-2.888;2022-10-16T14:55:02;5.85;;;2.75;;
28848;SDS011;15981;43.292;-2.888;2022-10-16T14:57:29;6.95;;;2.88;;
28848;SDS011;15981;43.292;-2.888;2022-10-16T14:59:56;7.07;;;2.80;;
28848;SDS011;15981;43.292;-2.888;2022-10-16T15:02:32;6.13;;;3.22;;
28848;SDS011;15981;43.292;-2.888;2022-10-16T15:05:04;4.97;;;2.80;;
28848;SDS011;15981;43.292;-2.888;2022-10-16T15:07:33;4.60;;;3.00;;
28848;SDS011;15981;43.292;-2.888;2022-10-16T15:09:58;5.68;;;2.83;;
28848;SDS011;15981;43.292;-2.888;2022-10-16T15:12:24;4.65;;;2.60;;
28848;SDS011;15981;43.292;-2.888;2022-10-16T15:14:50;4.05;;;2.33;;
28848;SDS011;15981;43.292;-2.888;2022-10-16T15:17:16;5.30;;;2.50;;
28848;SDS011;15981;43.292;-2.888;2022-10-16T15:19:41;3.95;;;2.60;;
28848;SDS011;15981;43.292;-2.888;2022-10-16T15:22:08;5.10;;;2.35;;
28848;SDS011;15981;43.292;-2.888;2022-10-16T15:24:34;6.75;;;2.95;;
28848;SDS011;15981;43.292;-2.888;2022-10-16T15:27:00;6.10;;;2.60;;
28848;SDS011;15981;43.292;-2.888;2022-10-16T15:29:26;5.60;;;2.67;;
28848;SDS011;15981;43.292;-2.888;2022-10-16T15:31:52;5.93;;;3.17;;
28848;SDS011;15981;43.292;-2.888;2022-10-16T15:34:17;5.78;;;2.63;;
28848;SDS011;15981;43.292;-2.888;2022-10-16T15:36:44;7.10;;;2.80;;
28848;SDS011;15981;43.292;-2.888;2022-10-16T15:39:17;5.88;;;2.70;;
28848;SDS011;15981;43.292;-2.888;2022-10-16T15:41:44;5.25;;;2.80;;
28848;SDS011;15981;43.292;-2.888;2022-10-16T15:44:10;5.50;;;2.65;;
28848;SDS011;15981;43.292;-2.888;2022-10-16T15:46:36;6.78;;;2.78;;
28848;SDS011;15981;43.292;-2.888;2022-10-16T15:49:02;5.32;;;2.92;;
28848;SDS011;15981;43.292;-2.888;2022-10-16T15:51:28;5.47;;;3.05;;
28848;SDS011;15981;43.292;-2.888;2022-10-16T15:53:58;6.68;;;3.05;;
28848;SDS011;15981;43.292;-2.888;2022-10-16T15:56:24;7.35;;;2.80;;
28848;SDS011;15981;43.292;-2.888;2022-10-16T15:58:53;5.60;;;2.92;;
28848;SDS011;15981;43.292;-2.888;2022-10-16T16:01:19;4.53;;;2.45;;
28848;SDS011;15981;43.292;-2.888;2022-10-16T16:03:45;5.30;;;2.67;;
28848;SDS011;15981;43.292;-2.888;2022-10-16T16:06:12;7.22;;;2.72;;
28848;SDS011;15981;43.292;-2.888;2022-10-16T16:08:38;6.45;;;3.10;;
28848;SDS011;15981;43.292;-2.888;2022-10-16T16:11:05;4.80;;;3.00;;
28848;SDS011;15981;43.292;-2.888;2022-10-16T16:13:31;6.70;;;2.95;;
28848;SDS011;15981;43.292;-2.888;2022-10-16T16:15:57;6.32;;;2.97;;
28848;SDS011;15981;43.292;-2.888;2022-10-16T16:18:23;5.75;;;2.67;;
28848;SDS011;15981;43.292;-2.888;2022-10-16T16:20:49;6.80;;;2.67;;
28848;SDS011;15981;43.292;-2.888;2022-10-16T16:23:15;6.03;;;3.13;;
28848;SDS011;15981;43.292;-2.888;2022-10-16T16:25:41;4.10;;;2.65;;
28848;SDS011;15981;43.292;-2.888;2022-10-16T16:28:10;7.80;;;3.05;;
28848;SDS011;15981;43.292;-2.888;2022-10-16T16:30:40;5.53;;;2.83;;
28848;SDS011;15981;43.292;-2.888;2022-10-16T16:33:06;4.50;;;2.95;;